Time;durP1;ratioP1;P1;durP2;ratioP2;P2;SDS_P1;SDS_P2;PMS_P1;PMS_P2;Temp;Humidity;BMP_temperature;BMP_pressure;BME280_temperature;BME280_humidity;BME280_pressure;Samples;Min_cycle;Max_cycle;Signal;HPM_P1;HPM_P2
2023/01/27 00:00:52;;;;;;;11.73;4.73;;;7.10;99.90;;;7.27;63.85;101810.47;5373004;22;100247;-47
2023/01/27 00:03:18;;;;;;;9.33;3.40;;;7.10;99.90;;;7.29;64.14;101802.59;4926113;28;97366;-46
2023/01/27 00:05:45;;;;;;;13.63;4.53;;;7.10;99.90;;;7.24;64.14;101799.13;4895367;28;97398;-48
2023/01/27 00:08:11;;;;;;;15.33;3.93;;;7.00;99.90;;;7.24;64.04;101805.25;4917041;28;97684;-47
2023/01/27 00:10:37;;;;;;;10.70;4.10;;;7.10;99.90;;;7.22;64.15;101793.84;4886640;28;98781;-51
2023/01/27 00:15:48;;;;;;;7.97;4.10;;;7.10;99.90;;;7.20;63.65;101795.63;4686888;28;98092;-46
2023/01/27 00:18:13;;;;;;;5.77;3.23;;;7.00;99.90;;;7.16;63.78;101796.50;4505564;30;97490;-48
2023/01/27 00:26:15;;;;;;;15.90;4.10;;;6.90;99.90;;;7.05;64.11;101798.28;4262944;32;98082;-47
2023/01/27 00:28:43;;;;;;;12.50;3.67;;;6.90;99.90;;;7.05;64.37;101803.53;4281802;32;98219;-46
2023/01/27 00:34:00;;;;;;;10.90;3.67;;;6.90;99.90;;;6.99;64.59;101798.31;4257252;32;101163;-49
2023/01/27 00:36:30;;;;;;;10.03;3.53;;;6.90;99.90;;;7.00;65.75;101805.31;4265724;32;97548;-47
2023/01/27 00:38:56;;;;;;;16.17;4.20;;;6.90;99.90;;;7.03;65.88;101806.16;4293651;32;103954;-46
2023/01/27 00:41:22;;;;;;;7.93;3.63;;;6.90;99.90;;;7.20;65.17;101811.38;4268841;32;114904;-47
2023/01/27 00:43:52;;;;;;;16.00;4.07;;;7.00;99.90;;;7.26;64.78;101808.72;4293275;32;98855;-47
2023/01/27 00:46:21;;;;;;;8.17;2.90;;;7.20;99.90;;;7.34;64.16;101806.06;4269072;32;98197;-47
2023/01/27 00:48:47;;;;;;;5.93;2.27;;;7.20;99.90;;;7.38;64.03;101816.56;4261497;32;96930;-44
2023/01/27 00:51:14;;;;;;;8.13;3.20;;;7.30;99.90;;;7.49;63.58;101813.00;4281604;32;98617;-47
2023/01/27 00:53:40;;;;;;;3.90;2.20;;;7.40;99.90;;;7.54;63.12;101814.75;4258359;32;98886;-48
2023/01/27 00:56:07;;;;;;;6.50;3.20;;;7.40;99.90;;;7.64;62.55;101818.16;4262253;32;99952;-48
2023/01/27 00:58:33;;;;;;;5.07;3.07;;;7.50;99.90;;;7.60;63.14;101808.56;4301937;32;100278;-46
2023/01/27 01:01:03;;;;;;;11.50;3.23;;;7.50;99.90;;;7.56;62.93;101812.09;4267828;32;97466;-48
2023/01/27 01:03:31;;;;;;;7.20;2.20;;;7.50;99.90;;;7.50;63.95;101818.22;4266761;32;97216;-46
2023/01/27 01:05:59;;;;;;;4.87;2.57;;;7.40;99.90;;;7.49;63.16;101819.13;4267085;32;97131;-45
2023/01/27 01:08:27;;;;;;;5.30;2.27;;;7.40;99.90;;;7.53;63.38;101820.00;4266812;32;100077;-47
2023/01/27 01:10:53;;;;;;;5.57;2.83;;;7.40;99.90;;;7.49;63.69;101826.13;4269432;32;98254;-48
2023/01/27 01:13:20;;;;;;;6.53;3.37;;;7.40;99.90;;;7.51;63.70;101830.47;4269804;32;97658;-45
2023/01/27 01:15:46;;;;;;;6.13;2.77;;;7.50;99.90;;;7.50;63.86;101830.50;4266852;32;97746;-50
2023/01/27 01:18:12;;;;;;;3.77;2.53;;;7.40;99.90;;;7.52;63.91;101831.34;4343572;30;103245;-50
2023/01/27 01:20:41;;;;;;;5.43;2.50;;;7.50;99.90;;;7.54;64.05;101830.50;4500600;30;99991;-49
2023/01/27 01:23:07;;;;;;;7.77;3.30;;;7.50;99.90;;;7.56;63.84;101838.38;4535073;30;100134;-48
2023/01/27 01:25:34;;;;;;;4.50;1.90;;;7.50;99.90;;;7.57;63.31;101837.47;4534427;30;99075;-46
2023/01/27 01:28:01;;;;;;;5.60;2.70;;;7.50;99.90;;;7.79;62.36;101849.59;4534725;30;99295;-51
2023/01/27 01:30:27;;;;;;;7.87;3.40;;;7.60;99.90;;;8.06;61.12;101836.31;4534361;30;97447;-48
2023/01/27 01:32:54;;;;;;;5.37;1.93;;;7.90;99.90;;;8.10;61.23;101852.97;4547280;30;98439;-46
2023/01/27 01:35:21;;;;;;;5.10;2.33;;;7.90;99.90;;;8.42;59.67;101850.13;4563275;30;100920;-47
2023/01/27 01:37:47;;;;;;;5.83;2.33;;;8.20;99.90;;;8.71;58.25;101843.75;4545287;30;100232;-51
2023/01/27 01:40:14;;;;;;;4.77;2.07;;;8.50;99.90;;;9.39;56.88;101831.59;4536442;30;97956;-50
2023/01/27 01:43:12;;;;;;;5.47;2.40;;;9.00;99.90;;;9.45;55.10;101837.69;4558880;30;113296;-50
2023/01/27 01:45:56;;;;;;;4.27;1.87;;;9.50;99.90;;;9.73;55.50;101838.19;4534985;30;99029;-51
2023/01/27 01:48:51;;;;;;;5.63;2.43;;;9.50;99.90;;;9.44;55.42;101840.34;4532278;30;98058;-54
2023/01/27 01:51:36;;;;;;;5.40;2.33;;;9.30;99.90;;;9.36;56.49;101844.81;4535599;30;99587;-54
2023/01/27 01:54:30;;;;;;;4.23;2.43;;;9.10;99.90;;;9.27;56.46;101839.66;4542208;30;102789;-51
2023/01/27 01:57:57;;;;;;;3.80;2.10;;;9.00;99.90;;;9.18;56.39;101844.13;4559762;30;98167;-54
2023/01/27 02:00:24;;;;;;;3.10;2.03;;;8.80;99.90;;;8.88;57.53;101833.94;4554471;30;97467;-53
2023/01/27 02:02:51;;;;;;;4.77;1.80;;;8.60;99.90;;;8.79;58.24;101839.28;4576401;30;114458;-54
2023/01/27 02:05:29;;;;;;;2.87;1.90;;;8.50;99.90;;;8.75;57.91;101837.56;4568718;30;111958;-54
2023/01/27 02:08:12;;;;;;;7.73;2.50;;;8.40;99.90;;;8.85;57.87;101852.38;4554449;30;97216;-51
2023/01/27 02:10:57;;;;;;;4.17;2.27;;;8.50;99.90;;;8.85;57.36;101847.13;4526573;30;97843;-50
2023/01/27 02:13:23;;;;;;;5.23;1.73;;;8.60;99.90;;;9.20;56.70;101846.75;4499888;30;100373;-52
2023/01/27 02:15:53;;;;;;;2.77;1.67;;;8.90;99.90;;;9.91;54.59;101852.00;4577255;30;103313;-52
2023/01/27 02:18:46;;;;;;;4.00;1.73;;;9.80;99.90;;;10.23;53.43;101852.44;4565958;29;98216;-52
2023/01/27 02:21:12;;;;;;;5.17;2.20;;;10.30;99.90;;;10.15;53.06;101854.31;4693516;29;1184290;-50
2023/01/27 02:24:11;;;;;;;5.43;2.13;;;10.20;99.90;;;10.32;53.25;101860.22;4762133;29;97531;-49
2023/01/27 02:26:50;;;;;;;6.07;1.90;;;10.20;99.90;;;10.61;51.99;101851.81;4748460;29;97457;-48
2023/01/27 02:29:16;;;;;;;5.20;1.87;;;10.60;99.90;;;10.72;51.63;101857.81;4751707;29;97420;-52
2023/01/27 02:31:42;;;;;;;2.90;1.53;;;10.70;99.90;;;10.92;51.58;101849.53;4772146;29;97611;-48
2023/01/27 02:34:16;;;;;;;1.93;1.50;;;10.90;99.90;;;10.92;50.12;101838.97;4761911;29;97406;-49
2023/01/27 02:36:57;;;;;;;4.90;1.50;;;11.00;99.90;;;11.04;48.41;101837.88;4768732;29;97399;-51
2023/01/27 02:39:31;;;;;;;3.63;2.00;;;11.10;99.90;;;10.87;49.78;101838.19;4767684;29;97533;-45
2023/01/27 02:42:54;;;;;;;3.83;1.83;;;10.80;99.90;;;10.72;50.66;101846.38;4744224;29;96980;-49
2023/01/27 02:45:23;;;;;;;2.00;1.00;;;10.50;99.90;;;10.85;51.46;101850.53;4772337;29;102560;-48
2023/01/27 02:48:12;;;;;;;2.17;1.00;;;10.40;99.90;;;10.58;50.99;101851.03;4755268;29;97728;-52
2023/01/27 02:50:37;;;;;;;3.07;1.27;;;10.40;99.90;;;10.62;51.99;101857.97;4757700;29;97119;-48
2023/01/27 02:53:03;;;;;;;1.97;0.83;;;10.20;99.90;;;10.51;50.72;101859.91;4766193;29;103134;-46
2023/01/27 02:55:29;;;;;;;1.53;0.50;;;10.20;99.90;;;10.25;52.13;101863.81;4760029;29;97347;-50
2023/01/27 02:57:55;;;;;;;1.60;0.87;;;9.80;99.90;;;10.35;52.67;101865.44;4752085;29;97523;-50
2023/01/27 03:00:21;;;;;;;0.93;0.73;;;9.90;99.90;;;9.91;51.81;101873.09;4773503;29;96599;-53
2023/01/27 03:02:47;;;;;;;2.47;0.83;;;9.60;99.90;;;9.80;53.13;101871.47;4768569;29;97602;-50
2023/01/27 03:05:14;;;;;;;1.70;0.90;;;9.40;99.90;;;10.06;53.66;101863.19;4772657;29;97301;-48
2023/01/27 03:07:41;;;;;;;0.67;0.40;;;9.60;99.90;;;10.10;53.26;101864.88;4761855;29;101227;-48
2023/01/27 03:10:09;;;;;;;2.07;1.07;;;9.90;99.90;;;9.90;53.82;101863.44;4770547;29;97303;-46
2023/01/27 03:12:35;;;;;;;1.27;0.67;;;9.70;99.90;;;9.70;51.75;101863.72;4761540;29;97439;-52
2023/01/27 03:20:29;;;;;;;2.60;0.73;;;9.10;99.90;;;9.49;52.38;101865.72;4806907;28;96887;-50
2023/01/27 03:22:55;;;;;;;0.77;0.50;;;9.20;99.90;;;9.35;53.92;101862.38;4889382;28;96712;-51
2023/01/27 03:25:21;;;;;;;2.83;0.70;;;9.00;99.90;;;8.91;54.09;101860.22;4885824;28;98597;-56
2023/01/27 03:27:47;;;;;;;1.43;0.73;;;8.80;99.90;;;8.89;54.17;101864.63;4885926;28;103625;-50
2023/01/27 03:30:13;;;;;;;1.53;0.37;;;8.60;99.90;;;8.76;54.34;101869.13;4891054;28;97351;-50
2023/01/27 03:32:45;;;;;;;1.87;0.90;;;8.50;99.90;;;8.73;56.67;101871.78;4887144;28;104619;-52
2023/01/27 03:35:15;;;;;;;1.80;1.00;;;8.40;99.90;;;8.64;57.06;101875.34;4873765;28;97722;-50
2023/01/27 03:48:40;;;;;;;3.43;1.13;;;8.70;99.90;;;8.73;56.19;101882.31;4878023;28;97195;-50
2023/01/27 03:51:09;;;;;;;1.37;0.70;;;8.50;99.90;;;8.91;55.22;101886.53;4889108;28;97171;-51
2023/01/27 03:53:35;;;;;;;1.80;1.03;;;8.70;99.90;;;8.76;55.36;101884.91;4886509;28;97275;-46
2023/01/27 03:56:03;;;;;;;2.50;1.27;;;8.60;99.90;;;8.68;55.86;101883.22;4884458;28;97281;-51
2023/01/27 03:58:33;;;;;;;2.37;1.07;;;8.50;99.90;;;8.52;56.80;101885.97;4870601;28;97494;-51
2023/01/27 04:01:21;;;;;;;2.50;1.57;;;8.30;99.90;;;8.45;57.36;101880.78;4891680;28;96973;-47
2023/01/27 04:06:57;;;;;;;4.47;1.47;;;8.30;99.90;;;8.29;57.03;101882.63;4884236;28;97301;-49
2023/01/27 04:09:24;;;;;;;3.23;1.50;;;8.10;99.90;;;8.12;57.98;101888.00;4882147;28;97146;-54
2023/01/27 04:11:59;;;;;;;3.40;1.40;;;7.90;99.90;;;7.93;58.25;101881.94;4890901;28;97373;-47
2023/01/27 04:14:37;;;;;;;2.57;1.10;;;7.80;99.90;;;7.85;58.52;101883.75;4878701;28;96979;-47
2023/01/27 04:17:14;;;;;;;1.77;1.00;;;7.70;99.90;;;7.79;59.54;101880.25;4866095;28;97425;-53
2023/01/27 04:19:40;;;;;;;1.90;1.27;;;7.70;99.90;;;7.70;60.05;101883.81;4864209;28;97070;-45
2023/01/27 04:22:08;;;;;;;4.33;1.80;;;7.60;99.90;;;7.65;60.44;101880.31;4931020;28;96978;-52
2023/01/27 04:24:34;;;;;;;2.33;1.37;;;7.60;99.90;;;7.58;60.18;101883.88;4945273;28;97330;-49
2023/01/27 04:27:03;;;;;;;3.60;1.43;;;7.50;99.90;;;7.56;60.69;101880.38;4948634;28;105877;-48
2023/01/27 04:29:33;;;;;;;3.27;1.37;;;7.50;99.90;;;7.62;60.67;101886.47;4940837;28;96882;-48
2023/01/27 04:31:59;;;;;;;3.20;1.27;;;7.50;99.90;;;7.59;60.83;101885.63;4948160;28;97133;-52
2023/01/27 04:34:26;;;;;;;3.30;1.30;;;7.50;99.90;;;7.52;60.12;101878.63;4945813;28;97557;-45
2023/01/27 04:36:53;;;;;;;3.17;1.47;;;7.40;99.90;;;7.50;60.94;101881.25;4948268;28;96914;-51
2023/01/27 04:39:19;;;;;;;4.80;2.03;;;7.40;99.90;;;7.44;60.62;101882.16;4949546;28;98128;-45
2023/01/27 04:41:45;;;;;;;2.93;1.33;;;7.40;99.90;;;7.46;60.63;101885.66;4914646;23;97780;-54
2023/01/27 04:44:12;;;;;;;2.23;1.30;;;7.40;99.90;;;7.51;60.46;101887.38;4914512;28;97382;-50
2023/01/27 04:46:38;;;;;;;3.53;1.33;;;7.40;99.90;;;7.50;60.49;101888.25;4914168;28;98620;-51
2023/01/27 04:49:05;;;;;;;3.90;2.03;;;7.40;99.90;;;7.37;60.92;101887.41;4914750;28;99278;-55
2023/01/27 04:51:32;;;;;;;3.17;1.27;;;7.40;99.90;;;7.46;60.19;101890.91;4893311;28;97348;-55
2023/01/27 04:53:58;;;;;;;5.70;1.23;;;7.40;99.90;;;7.45;60.52;101893.53;4896384;28;97640;-55
2023/01/27 04:56:27;;;;;;;3.60;1.70;;;7.40;99.90;;;7.42;60.52;101883.91;4907411;28;97834;-53
2023/01/27 04:58:54;;;;;;;4.37;1.60;;;7.30;99.90;;;7.40;60.39;101885.69;4908823;28;97208;-51
2023/01/27 05:01:21;;;;;;;4.87;2.10;;;7.30;99.90;;;7.40;60.38;101893.56;4874969;28;97663;-50
2023/01/27 05:03:47;;;;;;;3.70;1.70;;;7.30;99.90;;;7.35;60.29;101899.69;4909856;28;97431;-54
2023/01/27 05:06:12;;;;;;;2.57;1.00;;;7.30;99.90;;;7.34;60.96;101901.44;4910614;28;97400;-54
2023/01/27 05:08:39;;;;;;;3.90;2.20;;;7.30;99.90;;;7.38;60.98;101902.31;4891879;28;96942;-54
2023/01/27 05:11:05;;;;;;;3.97;1.73;;;7.30;99.90;;;7.34;60.56;101906.69;4912384;28;99964;-55
2023/01/27 05:13:31;;;;;;;4.80;1.87;;;7.30;99.90;;;7.40;61.09;101911.94;4887409;28;97058;-54
2023/01/27 05:17:07;;;;;;;3.60;1.27;;;7.30;99.90;;;7.54;61.57;101908.41;4906768;28;97857;-55
2023/01/27 05:20:52;;;;;;;3.53;2.13;;;7.40;99.90;;;7.57;60.44;101913.63;4906426;28;100204;-55
2023/01/27 05:27:15;;;;;;;3.00;1.07;;;7.50;99.90;;;7.65;60.25;101911.84;4871136;28;97061;-54
2023/01/27 05:29:41;;;;;;;2.87;1.53;;;7.50;99.90;;;7.61;60.33;101916.22;4866853;28;102673;-54
2023/01/27 05:32:07;;;;;;;2.37;1.50;;;7.50;99.90;;;7.56;60.12;101914.50;4889754;28;97522;-55
2023/01/27 05:34:32;;;;;;;3.87;1.93;;;7.40;99.90;;;7.68;60.43;101917.09;4883077;28;102298;-54
2023/01/27 05:36:58;;;;;;;3.73;1.90;;;7.50;99.90;;;7.71;60.72;101924.97;4891379;28;97089;-54
2023/01/27 05:39:24;;;;;;;2.53;1.27;;;7.50;99.90;;;7.68;59.86;101923.22;4839790;28;98945;-59
2023/01/27 05:41:50;;;;;;;2.43;1.23;;;7.60;99.90;;;7.76;60.15;101920.56;4892900;28;99550;-53
2023/01/27 05:44:16;;;;;;;2.53;1.43;;;7.60;99.90;;;7.78;59.93;101929.31;4868618;28;97148;-54
2023/01/27 05:47:22;;;;;;;2.60;1.23;;;7.70;99.90;;;7.81;60.16;101931.03;4832646;28;108516;-55
2023/01/27 05:49:57;;;;;;;3.40;1.50;;;7.60;99.90;;;7.89;59.99;101927.50;4887724;28;102164;-51
2023/01/27 05:52:22;;;;;;;2.93;1.30;;;7.70;99.90;;;7.98;60.21;101927.47;4866321;28;120311;-60
2023/01/27 05:54:51;;;;;;;5.23;1.50;;;7.80;99.90;;;7.96;59.62;101928.38;4878240;28;96811;-55
2023/01/27 05:57:17;;;;;;;1.80;0.93;;;7.80;99.90;;;7.94;59.93;101936.22;4868507;28;99198;-52
2023/01/27 05:59:43;;;;;;;1.70;0.80;;;7.80;99.90;;;7.95;59.90;101937.09;4893057;28;102091;-48
2023/01/27 06:02:08;;;;;;;2.63;1.80;;;7.80;99.90;;;7.95;60.00;101935.34;4889342;28;99739;-51
2023/01/27 06:04:34;;;;;;;3.50;1.70;;;7.80;99.90;;;7.97;59.45;101935.38;4891198;28;97314;-50
2023/01/27 06:07:00;;;;;;;2.90;1.77;;;7.80;99.90;;;7.99;59.67;101938.88;4891025;28;97122;-51
2023/01/27 06:09:26;;;;;;;1.47;1.27;;;7.80;99.90;;;8.20;59.98;101932.59;4875286;28;115265;-54
2023/01/27 06:11:52;;;;;;;3.13;1.50;;;7.90;99.90;;;8.07;59.20;101937.91;4893671;28;107165;-54
2023/01/27 06:14:18;;;;;;;3.10;1.73;;;7.90;99.90;;;8.10;59.59;101941.41;4888082;28;98785;-50
2023/01/27 06:16:46;;;;;;;2.40;1.70;;;7.90;99.90;;;8.25;59.13;101938.72;4888774;28;97463;-51
2023/01/27 06:19:12;;;;;;;4.43;1.23;;;8.00;99.90;;;8.21;58.88;101929.09;4883085;28;97085;-50
2023/01/27 06:21:37;;;;;;;4.20;1.83;;;8.00;99.90;;;8.35;59.29;101935.19;4910456;28;96892;-52
2023/01/27 06:24:04;;;;;;;3.43;1.73;;;8.10;99.90;;;8.61;58.17;101933.25;4926346;28;108962;-51
2023/01/27 06:26:30;;;;;;;2.40;1.30;;;8.30;99.90;;;8.65;57.02;101937.59;4923423;28;97096;-52
2023/01/27 06:29:04;;;;;;;4.93;1.80;;;8.50;99.90;;;8.57;57.55;101934.16;4892911;28;97305;-53
2023/01/27 06:31:30;;;;;;;1.83;1.10;;;8.40;99.90;;;8.78;56.84;101937.50;4924526;28;102787;-51
2023/01/27 06:34:24;;;;;;;3.07;1.53;;;8.50;99.90;;;8.61;57.71;101943.78;4931793;28;97137;-54
2023/01/27 06:36:53;;;;;;;2.30;1.23;;;8.40;99.90;;;8.65;57.16;101937.59;4920686;28;97246;-49
2023/01/27 06:39:18;;;;;;;2.43;1.43;;;8.40;99.90;;;8.55;57.52;101940.31;4897149;28;98775;-55
2023/01/27 06:41:44;;;;;;;5.60;2.00;;;8.30;99.90;;;8.55;57.66;101954.34;4926556;28;108058;-52
2023/01/27 06:44:10;;;;;;;5.23;1.70;;;8.30;99.90;;;8.50;58.41;101957.88;4927818;28;97639;-54
2023/01/27 06:46:36;;;;;;;4.50;1.83;;;8.30;99.90;;;8.65;57.94;101961.28;4913676;28;105699;-51
2023/01/27 06:49:01;;;;;;;4.80;1.90;;;8.40;99.90;;;8.65;57.54;101963.91;4911412;28;96683;-49
2023/01/27 06:51:28;;;;;;;4.73;1.63;;;8.40;99.90;;;8.56;57.77;101964.00;4891867;28;99990;-51
2023/01/27 06:53:53;;;;;;;4.37;2.20;;;8.30;99.90;;;8.52;57.88;101967.50;4884411;28;97244;-50
2023/01/27 06:56:20;;;;;;;2.70;1.43;;;8.30;99.90;;;8.58;58.17;101975.38;4937129;28;97153;-54
2023/01/27 06:58:46;;;;;;;5.13;2.20;;;8.30;99.90;;;8.48;57.96;101976.28;4914524;28;97574;-48
2023/01/27 07:01:12;;;;;;;3.73;1.43;;;8.30;99.90;;;8.46;57.84;101978.06;4923840;28;100337;-55
2023/01/27 07:03:38;;;;;;;8.07;1.77;;;8.30;99.90;;;8.56;57.91;101971.88;4919970;28;97293;-53
2023/01/27 07:06:04;;;;;;;4.03;1.77;;;8.30;99.90;;;8.49;58.28;101970.16;4911770;28;97737;-50
2023/01/27 07:08:31;;;;;;;5.63;2.67;;;8.30;99.90;;;8.41;57.57;101971.97;4923704;28;98683;-54
2023/01/27 07:10:57;;;;;;;3.40;1.87;;;8.30;99.90;;;8.59;58.38;101968.34;4929071;28;100066;-49
2023/01/27 07:13:22;;;;;;;1.83;0.70;;;8.30;99.90;;;8.73;57.89;101976.16;4915516;28;97141;-59
2023/01/27 07:15:56;;;;;;;5.07;2.43;;;8.40;99.90;;;8.81;56.21;101975.19;4925273;28;96722;-55
2023/01/27 07:18:22;;;;;;;4.37;1.80;;;8.70;99.90;;;8.83;56.45;101980.47;4925384;28;97252;-51
2023/01/27 07:20:48;;;;;;;2.60;0.87;;;8.70;99.90;;;9.00;57.08;101978.56;4918510;28;99818;-54
2023/01/27 07:23:14;;;;;;;2.80;1.10;;;8.70;99.90;;;9.16;56.35;101969.66;4921601;28;97870;-52
2023/01/27 07:25:43;;;;;;;5.07;1.70;;;8.90;99.90;;;9.21;55.90;101972.22;4911681;28;97504;-51
2023/01/27 07:28:09;;;;;;;5.13;2.47;;;9.00;99.90;;;9.32;54.93;101977.41;4919165;28;97690;-53
2023/01/27 07:30:36;;;;;;;4.70;2.50;;;9.10;99.90;;;9.50;53.73;101982.47;4915613;28;102134;-49
2023/01/27 07:33:14;;;;;;;2.17;0.93;;;9.20;99.90;;;9.49;54.94;101986.00;4926991;28;97548;-54
2023/01/27 07:35:41;;;;;;;2.37;1.57;;;9.20;99.90;;;9.40;55.63;101987.00;4915126;28;97783;-51
2023/01/27 07:38:08;;;;;;;3.83;1.53;;;9.10;99.90;;;9.78;52.61;101983.06;4916443;28;97334;-54
2023/01/27 07:40:34;;;;;;;1.13;0.63;;;9.60;99.90;;;9.97;53.92;101991.63;4916299;28;98310;-50
2023/01/27 07:43:01;;;;;;;2.20;1.47;;;9.70;99.90;;;10.33;52.28;101988.56;4920045;28;97062;-49
2023/01/27 07:45:28;;;;;;;5.33;2.43;;;10.30;99.90;;;10.29;52.23;101988.63;4914706;28;98589;-50
2023/01/27 07:48:03;;;;;;;3.60;2.27;;;10.20;99.90;;;9.93;52.41;101982.00;4923565;28;98177;-49
2023/01/27 07:50:29;;;;;;;3.70;1.50;;;9.90;99.90;;;9.87;52.91;101992.63;4915361;28;98251;-51
2023/01/27 07:52:59;;;;;;;2.97;1.77;;;9.60;99.90;;;9.87;53.10;101987.38;4895776;28;97248;-51
2023/01/27 07:55:25;;;;;;;3.67;1.60;;;9.60;99.90;;;9.92;51.72;101988.19;4923397;28;97592;-53
2023/01/27 07:57:55;;;;;;;2.17;1.07;;;10.00;99.90;;;10.12;53.55;101988.78;4919774;28;97538;-56
2023/01/27 08:00:22;;;;;;;2.70;1.27;;;9.90;99.90;;;9.89;53.71;101990.84;4922672;28;98776;-52
2023/01/27 08:02:55;;;;;;;2.03;1.33;;;9.70;99.90;;;9.87;53.30;102003.19;4919294;28;97415;-48
2023/01/27 08:05:21;;;;;;;5.67;2.13;;;9.60;99.90;;;9.69;54.28;101999.88;4926174;28;97241;-55
2023/01/27 08:07:49;;;;;;;7.10;2.60;;;9.40;99.90;;;9.64;53.38;101996.38;4916281;28;102726;-52
2023/01/27 08:10:17;;;;;;;4.23;1.87;;;9.40;99.90;;;9.73;53.41;102001.56;4923687;28;97040;-50
2023/01/27 08:12:43;;;;;;;6.77;1.03;;;9.50;99.90;;;9.61;54.84;101995.56;4921782;28;97353;-51
2023/01/27 08:15:10;;;;;;;2.83;1.60;;;9.30;99.90;;;9.60;54.07;102004.34;4924921;28;97518;-52
2023/01/27 08:17:36;;;;;;;4.40;1.90;;;9.30;99.90;;;9.44;54.44;102004.50;4924219;28;99224;-50
2023/01/27 08:20:02;;;;;;;1.83;0.73;;;9.20;99.90;;;9.58;55.07;102000.88;4919566;28;99431;-50
2023/01/27 08:22:28;;;;;;;3.93;1.60;;;9.30;99.90;;;9.39;55.42;101990.47;4919857;28;97277;-53
2023/01/27 08:24:54;;;;;;;1.87;1.20;;;9.10;99.90;;;9.44;55.24;101998.38;4912156;28;100252;-50
2023/01/27 08:27:20;;;;;;;2.83;1.33;;;9.10;99.90;;;9.51;55.49;102000.03;4919235;28;119238;-54
2023/01/27 08:29:45;;;;;;;1.70;1.47;;;9.30;99.90;;;9.86;53.12;102001.44;4923836;28;97246;-54
2023/01/27 08:32:11;;;;;;;3.87;2.57;;;9.70;99.90;;;9.85;53.83;101997.94;4915080;28;99820;-52
2023/01/27 08:34:39;;;;;;;1.37;0.90;;;9.70;99.90;;;10.20;52.35;101997.50;4917204;28;103276;-52
2023/01/27 08:37:05;;;;;;;1.63;1.03;;;10.20;99.90;;;10.21;52.48;101998.38;4924785;28;97363;-55
2023/01/27 08:39:32;;;;;;;1.03;0.70;;;10.20;99.90;;;10.92;51.32;101994.72;4930657;28;98642;-52
2023/01/27 08:41:58;;;;;;;3.17;1.47;;;10.80;99.90;;;11.10;49.26;101996.19;4917024;28;108195;-52
2023/01/27 08:44:24;;;;;;;6.70;1.97;;;11.30;99.90;;;10.49;51.87;101998.91;4917600;28;97278;-54
2023/01/27 08:46:50;;;;;;;1.03;0.57;;;10.60;99.90;;;10.75;52.30;102002.03;4920690;28;100359;-54
2023/01/27 08:49:16;;;;;;;1.77;0.57;;;10.60;99.90;;;11.01;51.52;102005.16;4924022;28;115988;-51
2023/01/27 08:51:42;;;;;;;2.00;1.20;;;10.90;99.90;;;11.06;50.15;102001.56;4923616;28;102218;-50
2023/01/27 08:54:08;;;;;;;1.23;0.87;;;11.10;99.90;;;11.23;49.21;102003.00;4926079;28;109518;-51
2023/01/27 08:56:34;;;;;;;0.97;0.73;;;11.30;99.90;;;11.33;50.10;102003.72;4919181;28;97467;-56
2023/01/27 08:59:00;;;;;;;0.70;0.60;;;11.20;99.90;;;11.76;49.01;102005.59;4922516;28;105839;-54
2023/01/27 09:01:26;;;;;;;1.33;0.83;;;11.80;99.90;;;12.01;48.30;102006.88;4923683;28;104767;-54
2023/01/27 09:03:52;;;;;;;1.50;0.70;;;12.20;99.90;;;12.03;48.37;102004.22;4926025;28;110843;-51
2023/01/27 09:06:20;;;;;;;0.50;0.40;;;12.20;99.90;;;12.25;47.74;102004.63;4939525;28;100342;-51
2023/01/27 09:09:07;;;;;;;1.83;0.93;;;12.50;99.90;;;12.39;47.15;102007.84;4922464;28;98158;-53
2023/01/27 09:11:32;;;;;;;2.37;0.90;;;12.70;99.90;;;12.55;46.48;101998.66;4923669;28;97328;-49
2023/01/27 09:13:58;;;;;;;0.53;0.47;;;12.90;99.90;;;12.72;46.57;102007.06;4919647;28;97495;-56
2023/01/27 09:16:24;;;;;;;1.30;0.50;;;13.00;99.90;;;12.91;46.10;102012.84;4912726;28;118028;-55
2023/01/27 09:18:49;;;;;;;0.40;0.30;;;13.30;99.90;;;13.06;45.80;102011.59;4919464;28;107822;-52
2023/01/27 09:21:15;;;;;;;1.03;0.63;;;13.50;99.90;;;13.15;45.73;102019.28;4914970;28;105629;-54
2023/01/27 09:23:41;;;;;;;0.90;0.43;;;13.60;99.90;;;13.18;45.25;102016.63;4918204;28;105460;-52
2023/01/27 09:26:07;;;;;;;0.70;0.40;;;13.50;99.90;;;13.31;45.14;102018.06;4918509;28;112767;-56
2023/01/27 09:28:32;;;;;;;1.47;0.83;;;13.70;99.90;;;13.21;44.56;102016.53;4922603;28;109563;-56
2023/01/27 09:30:59;;;;;;;0.60;0.40;;;13.60;99.90;;;13.13;45.39;102033.50;4920417;28;102832;-55
2023/01/27 09:33:25;;;;;;;0.40;0.40;;;13.40;99.90;;;13.22;45.41;102036.81;4918798;28;100397;-54
2023/01/27 09:36:01;;;;;;;0.53;0.50;;;13.50;99.90;;;13.26;45.17;102035.84;4922272;28;99535;-53
2023/01/27 09:38:34;;;;;;;0.50;0.40;;;13.60;99.90;;;13.27;44.88;102036.69;4921100;28;97486;-55
2023/01/27 09:41:36;;;;;;;0.70;0.40;;;13.60;99.90;;;13.42;45.06;102024.84;4923119;28;97117;-55
2023/01/27 09:44:45;;;;;;;0.93;0.50;;;13.70;99.90;;;13.40;45.01;102044.31;4916170;28;98331;-56
2023/01/27 09:47:41;;;;;;;0.60;0.40;;;13.70;99.90;;;13.49;44.46;102048.50;4917586;28;103350;-54
2023/01/27 09:50:34;;;;;;;0.50;0.40;;;13.90;99.90;;;13.50;44.72;102044.09;4916614;28;99714;-53
2023/01/27 09:53:12;;;;;;;1.13;0.40;;;13.90;99.90;;;13.51;44.81;102062.59;4919432;28;97648;-56
2023/01/27 09:56:21;;;;;;;0.20;0.20;;;14.00;99.90;;;13.62;44.64;102064.97;4911375;28;97229;-55
2023/01/27 09:59:32;;;;;;;0.57;0.20;;;14.10;99.90;;;13.64;44.28;102056.06;4920574;28;97594;-56
2023/01/27 10:02:36;;;;;;;0.57;0.40;;;14.10;99.90;;;13.63;44.46;102067.59;4917467;28;101860;-55
2023/01/27 10:05:30;;;;;;;0.60;0.30;;;14.00;99.90;;;13.66;44.30;102071.94;4921559;28;97634;-54
2023/01/27 10:08:30;;;;;;;0.60;0.33;;;14.00;99.90;;;13.70;44.17;102073.59;4920797;28;97286;-55
2023/01/27 10:11:21;;;;;;;0.53;0.33;;;14.10;99.90;;;13.67;44.30;102068.38;4920634;28;100539;-53
2023/01/27 10:14:16;;;;;;;0.37;0.27;;;14.10;99.90;;;13.52;44.60;102068.78;4916018;28;97410;-56
2023/01/27 10:17:30;;;;;;;0.50;0.33;;;13.80;99.90;;;13.63;44.29;102066.72;4889009;28;99906;-52
2023/01/27 10:20:16;;;;;;;0.73;0.60;;;14.00;99.90;;;13.44;44.57;102066.31;4878702;28;97898;-54
2023/01/27 10:23:08;;;;;;;0.40;0.27;;;13.70;99.90;;;13.35;43.80;102070.06;4923192;28;97716;-57
2023/01/27 10:26:05;;;;;;;0.97;0.37;;;13.50;99.90;;;13.42;44.90;102065.47;4922285;28;98207;-54
2023/01/27 10:28:32;;;;;;;1.20;0.80;;;13.60;99.90;;;13.37;44.85;102060.28;4915510;28;97054;-53
2023/01/27 10:31:01;;;;;;;0.37;0.37;;;13.60;99.90;;;13.32;45.12;102063.97;4918427;28;105828;-55
2023/01/27 10:33:54;;;;;;;0.47;0.40;;;13.50;99.90;;;13.08;44.97;102063.63;4918183;28;97459;-56
2023/01/27 10:36:27;;;;;;;1.03;0.90;;;13.40;99.90;;;13.01;47.10;102075.25;4920384;28;97038;-52
2023/01/27 10:39:02;;;;;;;2.70;0.33;;;13.30;99.90;;;13.25;46.31;102063.25;4919481;28;97393;-54
2023/01/27 10:41:42;;;;;;;0.63;0.57;;;13.50;99.90;;;13.17;45.44;102072.28;4912982;28;97325;-54
2023/01/27 10:45:02;;;;;;;0.60;0.43;;;13.50;99.90;;;13.12;45.92;102069.72;4923565;28;98133;-55
2023/01/27 10:47:33;;;;;;;0.40;0.30;;;13.20;99.90;;;13.02;45.96;102069.09;4916518;28;100650;-55
2023/01/27 10:50:08;;;;;;;0.03;0.03;;;13.10;99.90;;;13.22;45.64;102081.88;4919101;28;97661;-55
2023/01/27 10:52:47;;;;;;;0.60;0.20;;;13.40;99.90;;;13.35;45.47;102078.03;4906279;28;97897;-56
2023/01/27 10:55:30;;;;;;;0.17;0.17;;;13.70;99.90;;;13.36;44.21;102069.16;4915690;28;97525;-54
2023/01/27 10:58:09;;;;;;;0.53;0.30;;;13.70;99.90;;;13.48;45.27;102077.72;4907101;28;101822;-56
2023/01/27 11:00:45;;;;;;;0.53;0.23;;;13.80;99.90;;;13.49;45.10;102074.16;4917630;28;97050;-55
2023/01/27 11:04:08;;;;;;;0.43;0.20;;;13.80;99.90;;;13.52;44.89;102082.91;4920807;28;97797;-53
2023/01/27 11:06:41;;;;;;;1.27;0.30;;;13.70;99.90;;;13.20;45.47;102081.03;4841780;28;100366;-55
2023/01/27 11:09:14;;;;;;;0.20;0.20;;;13.20;99.90;;;13.27;44.48;102074.66;4916873;28;96902;-55
2023/01/27 11:11:43;;;;;;;0.87;0.20;;;13.40;99.90;;;13.27;45.19;102072.03;4923272;28;97723;-54
2023/01/27 11:14:21;;;;;;;0.30;0.20;;;13.50;99.90;;;13.08;45.42;102068.06;4926435;28;107623;-54
2023/01/27 11:16:51;;;;;;;0.20;0.20;;;13.20;99.90;;;13.14;44.54;102067.88;4920646;28;97919;-53